EDT,Max TemperatureF,Mean TemperatureF,Min TemperatureF,Max Dew PointF,MeanDew PointF,Min DewpointF,Max Humidity, Mean Humidity, Min Humidity, Max Sea Level PressureIn, Mean Sea Level PressureIn, Min Sea Level PressureIn, Max VisibilityMiles, Mean VisibilityMiles, Min VisibilityMiles, Max Wind SpeedMPH, Mean Wind SpeedMPH, Max Gust SpeedMPH,PrecipitationIn, CloudCover, Events, WindDirDegrees
2013-3-1,46,40,33,30,28,23,75,62,49,29.90,29.82,29.75,10,10,10,14,8,21,0.00,8,,299
2013-3-2,39,34,30,25,22,19,75,64,52,29.90,29.87,29.83,10,10,10,14,7,20,0.00,6,,297
2013-3-3,39,34,28,21,20,18,69,58,45,29.92,29.87,29.81,10,10,10,16,8,25,0.00,7,,303
2013-3-4,42,35,28,19,17,14,64,50,36,30.05,29.99,29.93,10,10,10,21,10,29,0.00,1,,298
2013-3-5,48,36,23,28,19,9,86,54,20,30.11,30.02,29.86,10,10,10,10,4,,0.00,3,,41
2013-3-6,37,34,32,34,32,27,100,90,65,30.00,29.78,29.65,10,6,2,23,11,33,0.00,8,,25
2013-3-7,50,42,33,32,27,23,81,62,35,30.16,30.09,30.01,10,10,10,18,8,29,0.00,4,,330
2013-3-8,50,41,32,28,26,21,81,58,40,30.28,30.19,30.14,10,10,10,21,9,32,0.00,4,,327
2013-3-9,60,46,32,27,21,14,75,44,16,30.36,30.30,30.26,10,10,10,9,5,,0.00,0,,332
2013-3-10,60,43,26,37,23,5,93,51,13,30.36,30.31,30.26,10,10,10,15,3,18,0.00,0,,147
2013-3-11,57,49,41,46,41,37,87,75,58,30.29,30.15,30.01,10,10,10,16,6,24,0.00,4,,149
2013-3-12,59,50,39,54,43,30,100,78,51,29.98,29.85,29.72,10,8,0,17,8,22,0.00,6,,275
2013-3-13,50,39,28,34,26,18,100,63,28,30.07,29.98,29.91,10,9,3,22,5,30,0.00,3,,275
2013-3-14,44,38,32,19,16,12,60,44,27,30.14,30.08,30.03,10,10,10,24,13,34,0.00,1,,290
2013-3-15,55,40,24,32,23,16,87,55,26,30.11,29.97,29.80,10,10,10,17,5,23,0.00,1,,239
2013-3-16,55,44,33,36,33,30,93,69,44,29.95,29.80,29.68,10,10,10,12,4,20,0.00,7,,68
2013-3-17,41,36,32,32,29,23,93,75,60,30.30,30.14,29.95,10,10,7,10,5,18,0.00,5,,25
2013-3-18,37,35,33,36,27,19,100,74,52,30.35,30.20,29.90,10,8,2,14,6,18,0.00,8,,82
2013-3-19,59,47,35,37,29,5,100,63,16,29.93,29.82,29.73,10,7,1,23,5,43,0.00,4,,286
2013-3-20,51,40,30,21,15,10,69,35,19,30.02,29.92,29.79,10,10,10,20,8,33,0.00,3,,269
2013-3-21,41,34,28,27,14,7,80,45,30,29.92,29.82,29.77,10,10,10,17,8,26,0.00,5,,313
2013-3-22,46,36,26,19,15,10,60,45,31,30.02,29.94,29.90,10,10,10,18,9,24,0.00,1,,284
2013-3-23,51,37,23,23,21,19,93,52,30,30.05,30.00,29.94,10,10,10,18,5,24,0.00,0,,299
2013-3-24,41,34,26,32,23,19,93,64,42,30.03,29.88,29.69,10,9,5,10,2,,0.00,3,,83
2013-3-25,35,34,32,34,32,30,100,96,87,29.71,29.60,29.54,10,3,0,8,3,,0.00,7,,341
2013-3-26,50,40,30,34,30,21,100,71,34,29.99,29.85,29.71,10,7,1,13,4,20,0.00,5,,299
2013-3-27,50,42,35,30,27,21,75,57,39,30.13,30.06,29.99,10,10,10,20,9,30,0.00,4,,291
2013-3-28,48,39,30,32,28,23,93,61,37,30.24,30.14,30.11,10,10,10,17,7,26,0.00,6,,294
2013-3-29,53,44,35,30,28,23,81,51,33,30.27,30.22,30.16,10,10,10,14,5,22,0.00,6,,307
2013-3-30,59,46,32,32,26,18,93,57,21,30.25,30.19,30.13,10,10,10,10,2,20,0.00,3,,268
2013-3-31,53,42,32,48,38,27,94,82,58,30.16,29.95,29.76,10,9,2,10,2,,0.00,4,,183